sensor_id;sensor_type;location;lat;lon;timestamp;pressure;altitude;pressure_sealevel;temperature;humidity
12073;BME280;6098;49.004;8.372;2023-04-26T00:11:56;100534.45;;;8.95;98.79
12073;BME280;6098;49.004;8.372;2023-04-26T00:26:48;100533.89;;;8.85;98.61
12073;BME280;6098;49.004;8.372;2023-04-26T00:41:40;100526.18;;;8.77;98.95
12073;BME280;6098;49.004;8.372;2023-04-26T00:56:32;100528.34;;;8.78;98.22
12073;BME280;6098;49.004;8.372;2023-04-26T01:11:23;100528.23;;;8.66;97.74
12073;BME280;6098;49.004;8.372;2023-04-26T01:26:13;100522.88;;;8.54;96.45
12073;BME280;6098;49.004;8.372;2023-04-26T01:41:04;100512.91;;;8.49;97.04
12073;BME280;6098;49.004;8.372;2023-04-26T01:56:00;100524.63;;;8.39;96.73
12073;BME280;6098;49.004;8.372;2023-04-26T02:26:05;100529.73;;;7.95;96.63
12073;BME280;6098;49.004;8.372;2023-04-26T02:41:02;100531.62;;;7.73;96.33
12073;BME280;6098;49.004;8.372;2023-04-26T02:55:57;100542.24;;;7.52;95.68
12073;BME280;6098;49.004;8.372;2023-04-26T03:10:48;100536.00;;;7.38;95.99
12073;BME280;6098;49.004;8.372;2023-04-26T03:25:41;100533.70;;;7.04;94.72
12073;BME280;6098;49.004;8.372;2023-04-26T03:40:33;100546.13;;;6.78;94.42
12073;BME280;6098;49.004;8.372;2023-04-26T03:55:26;100541.06;;;6.67;94.40
12073;BME280;6098;49.004;8.372;2023-04-26T04:10:31;100529.11;;;6.51;92.72
12073;BME280;6098;49.004;8.372;2023-04-26T04:25:24;100532.88;;;6.37;93.10
12073;BME280;6098;49.004;8.372;2023-04-26T04:40:14;100534.75;;;6.32;92.80
12073;BME280;6098;49.004;8.372;2023-04-26T04:55:06;100553.69;;;6.28;92.26
12073;BME280;6098;49.004;8.372;2023-04-26T05:09:57;100572.48;;;6.32;93.43
12073;BME280;6098;49.004;8.372;2023-04-26T05:24:48;100572.16;;;6.48;94.76
12073;BME280;6098;49.004;8.372;2023-04-26T05:39:41;100591.83;;;6.76;95.30
12073;BME280;6098;49.004;8.372;2023-04-26T05:54:34;100594.36;;;7.02;80.85
12073;BME280;6098;49.004;8.372;2023-04-26T06:09:25;100612.36;;;7.23;78.43
12073;BME280;6098;49.004;8.372;2023-04-26T06:24:15;100626.54;;;7.37;78.31
12073;BME280;6098;49.004;8.372;2023-04-26T06:39:07;100615.95;;;7.78;77.78
12073;BME280;6098;49.004;8.372;2023-04-26T06:54:02;100613.03;;;8.23;73.98
12073;BME280;6098;49.004;8.372;2023-04-26T07:08:54;100594.31;;;8.50;70.60
12073;BME280;6098;49.004;8.372;2023-04-26T07:23:46;100589.68;;;8.74;71.58
12073;BME280;6098;49.004;8.372;2023-04-26T07:38:38;100595.57;;;9.14;70.16
12073;BME280;6098;49.004;8.372;2023-04-26T07:53:31;100600.86;;;9.57;68.48
12073;BME280;6098;49.004;8.372;2023-04-26T08:08:26;100602.73;;;9.81;66.27
12073;BME280;6098;49.004;8.372;2023-04-26T08:23:21;100597.53;;;10.32;63.38
12073;BME280;6098;49.004;8.372;2023-04-26T08:38:13;100599.58;;;10.74;59.36
12073;BME280;6098;49.004;8.372;2023-04-26T08:53:05;100578.00;;;11.07;57.14
12073;BME280;6098;49.004;8.372;2023-04-26T09:08:01;100564.97;;;11.46;56.25
12073;BME280;6098;49.004;8.372;2023-04-26T09:22:53;100560.88;;;11.49;53.18
12073;BME280;6098;49.004;8.372;2023-04-26T09:52:51;100551.67;;;12.22;47.42
12073;BME280;6098;49.004;8.372;2023-04-26T10:07:43;100555.30;;;12.40;47.25
12073;BME280;6098;49.004;8.372;2023-04-26T10:22:44;100538.58;;;12.68;44.47
12073;BME280;6098;49.004;8.372;2023-04-26T11:08:02;100495.66;;;13.59;41.70
12073;BME280;6098;49.004;8.372;2023-04-26T11:22:42;100476.09;;;13.51;41.96
12073;BME280;6098;49.004;8.372;2023-04-26T11:37:33;100445.45;;;13.77;41.61
12073;BME280;6098;49.004;8.372;2023-04-26T11:52:24;100443.94;;;14.07;40.91
12073;BME280;6098;49.004;8.372;2023-04-26T12:07:19;100459.27;;;14.37;42.05
12073;BME280;6098;49.004;8.372;2023-04-26T12:22:19;100444.09;;;14.62;40.09
12073;BME280;6098;49.004;8.372;2023-04-26T12:37:09;100434.97;;;14.74;40.02
12073;BME280;6098;49.004;8.372;2023-04-26T12:52:05;100430.60;;;15.05;38.82
12073;BME280;6098;49.004;8.372;2023-04-26T13:06:59;100429.33;;;15.19;39.23
12073;BME280;6098;49.004;8.372;2023-04-26T13:21:51;100428.73;;;15.67;38.81
12073;BME280;6098;49.004;8.372;2023-04-26T13:36:43;100419.37;;;15.53;38.31
12073;BME280;6098;49.004;8.372;2023-04-26T13:51:38;100404.75;;;16.32;37.10
12073;BME280;6098;49.004;8.372;2023-04-26T14:06:32;100397.48;;;16.41;36.83
12073;BME280;6098;49.004;8.372;2023-04-26T14:21:27;100394.20;;;17.19;35.38
12073;BME280;6098;49.004;8.372;2023-04-26T14:36:31;100394.84;;;17.50;34.15
12073;BME280;6098;49.004;8.372;2023-04-26T14:51:30;100380.67;;;17.61;34.97
12073;BME280;6098;49.004;8.372;2023-04-26T15:06:28;100377.40;;;18.02;33.48
12073;BME280;6098;49.004;8.372;2023-04-26T15:21:18;100364.28;;;17.72;33.89
12073;BME280;6098;49.004;8.372;2023-04-26T15:36:21;100358.42;;;17.67;33.75
12073;BME280;6098;49.004;8.372;2023-04-26T15:51:23;100355.08;;;17.50;34.35
12073;BME280;6098;49.004;8.372;2023-04-26T16:06:09;100344.72;;;16.78;35.39
12073;BME280;6098;49.004;8.372;2023-04-26T16:21:03;100344.16;;;16.73;36.22
12073;BME280;6098;49.004;8.372;2023-04-26T16:36:01;100343.30;;;16.44;36.99
12073;BME280;6098;49.004;8.372;2023-04-26T16:50:52;100341.95;;;16.17;37.08
12073;BME280;6098;49.004;8.372;2023-04-26T17:05:44;100341.19;;;15.86;37.57
12073;BME280;6098;49.004;8.372;2023-04-26T17:20:35;100352.05;;;15.54;37.62
12073;BME280;6098;49.004;8.372;2023-04-26T17:35:27;100350.89;;;15.44;38.61
12073;BME280;6098;49.004;8.372;2023-04-26T17:50:18;100354.09;;;15.19;38.69
12073;BME280;6098;49.004;8.372;2023-04-26T18:05:10;100363.36;;;15.05;39.19
12073;BME280;6098;49.004;8.372;2023-04-26T18:20:01;100381.67;;;14.81;40.26
12073;BME280;6098;49.004;8.372;2023-04-26T18:35:11;100394.78;;;14.53;40.68
12073;BME280;6098;49.004;8.372;2023-04-26T18:50:05;100405.50;;;14.28;41.86
12073;BME280;6098;49.004;8.372;2023-04-26T19:04:58;100422.62;;;14.07;43.04
12073;BME280;6098;49.004;8.372;2023-04-26T19:19:49;100433.59;;;14.01;44.41
12073;BME280;6098;49.004;8.372;2023-04-26T19:34:46;100449.95;;;13.94;45.17
12073;BME280;6098;49.004;8.372;2023-04-26T19:49:38;100459.76;;;13.67;44.71
12073;BME280;6098;49.004;8.372;2023-04-26T20:04:29;100455.92;;;13.46;44.62
12073;BME280;6098;49.004;8.372;2023-04-26T20:19:21;100473.38;;;13.25;45.82
12073;BME280;6098;49.004;8.372;2023-04-26T20:34:12;100472.92;;;13.16;45.78
12073;BME280;6098;49.004;8.372;2023-04-26T20:49:04;100465.60;;;13.11;47.30
12073;BME280;6098;49.004;8.372;2023-04-26T21:03:55;100468.83;;;12.99;47.95
12073;BME280;6098;49.004;8.372;2023-04-26T21:18:46;100466.61;;;12.90;49.04
12073;BME280;6098;49.004;8.372;2023-04-26T21:33:36;100465.02;;;12.77;50.85
12073;BME280;6098;49.004;8.372;2023-04-26T21:48:28;100473.63;;;12.63;53.08
12073;BME280;6098;49.004;8.372;2023-04-26T22:03:18;100483.25;;;12.57;53.41
12073;BME280;6098;49.004;8.372;2023-04-26T22:18:09;100483.17;;;12.58;52.54
12073;BME280;6098;49.004;8.372;2023-04-26T22:33:03;100480.78;;;12.52;53.81
12073;BME280;6098;49.004;8.372;2023-04-26T22:48:06;100483.25;;;12.46;54.36
12073;BME280;6098;49.004;8.372;2023-04-26T23:02:57;100491.52;;;11.89;59.85
12073;BME280;6098;49.004;8.372;2023-04-26T23:18:03;100492.58;;;11.75;60.08
12073;BME280;6098;49.004;8.372;2023-04-26T23:32:55;100496.80;;;11.59;60.41
12073;BME280;6098;49.004;8.372;2023-04-26T23:47:46;100495.73;;;11.52;60.99
